Ana Sayfa
METAR-TAF:

METAR-TAF

Havaalanları :

Brooks Field

Marshall, Michigan, Amerika Birleşik Devletleri

Enlem: 42-15-04N, Boylam: 084-57-20W, yükseklik: 287 m

Güncel hava durumu gözlemi

Rapor saat 09:19 UTC de 30 dakika önce yapıldı.
Sakin rüzgar
Sıcaklık 24°C
Nem 78%
Basınç 1015 hPa
Görüş mesafesi: 16.1 km
Açık gökyüzü

METAR: KRMY 200919Z AUTO 00000KT 10SM CLR 24/20 A2996 RMK AO2 T02360204

Saat: 05:49 (09:49 UTC)


TAF: eksik

4.000'den fazla havaalanı için hava durumu gözlemleri ve tahminleri (METAR ve TAF raporları).

Kullanılabilir istasyonlar harita üzerinde sarı ve kırmızı noktalarla gösterilir.

İstasyonun adını görmek için fareyi noktanın üzerinde gezdirin.

Sonrasında hava gözlem ve tahminlerini görmek için tıklayın.

Haritayı değiştirmek için: yaklaştırmak için siyah artı işaretli yeşil düğmeye ve uzaklaştırmak için de eksi işaretli düğmeye hızla tıklayın; bitişik haritalar için yeşil okları kullanın.


METAR-TAF: